CheckWX is a tool to help pilots better visualize weather data.  It is not intended as a substitute for an official pre-flight weather briefing.

17:38:40 UTC

EGNO METAR
Warton Airport
Warton, United Kingdom
Current

19 mins ago

EGNO 201720Z 18007KT 9999 BKN022 10/09 Q1014
Observed
Feb-20 @ 17:20 UTC
Wind
  • 180° at 7 KTS
Visibility
10,000+ meters
Flight Rules
MVFR
Cloud Levels
  • Broken at 2,200' AGL
Temperature
10°C / 50°F
Dewpoint
C / 48°F
Humidity
94%
Altimeter
29.94" Hg
Pressure
1013.92 hPa
Previous

49 mins ago

EGNO 201650Z 18010KT 9999 FEW025 BKN029 10/08 Q1014
Observed
Feb-20 @ 16:50 UTC
Wind
  • 180° at 10 KTS
Visibility
10,000+ meters
Flight Rules
MVFR
Cloud Levels
  • Few at 2,500' AGL
  • Broken at 2,900' AGL
Temperature
10°C / 50°F
Dewpoint
C / 46°F
Humidity
88%
Altimeter
29.94" Hg
Pressure
1013.92 hPa
Previous

1 hour ago

EGNO 201620Z 17010KT 9999 BKN026 10/08 Q1014
Observed
Feb-20 @ 16:20 UTC
Wind
  • 170° at 10 KTS
Visibility
10,000+ meters
Flight Rules
MVFR
Cloud Levels
  • Broken at 2,600' AGL
Temperature
10°C / 50°F
Dewpoint
C / 46°F
Humidity
88%
Altimeter
29.94" Hg
Pressure
1013.92 hPa